Time;durP1;ratioP1;P1;durP2;ratioP2;P2;SDS_P1;SDS_P2;PMS_P1;PMS_P2;Temp;Humidity;BMP_temperature;BMP_pressure;BME280_temperature;BME280_humidity;BME280_pressure;Samples;Min_cycle;Max_cycle;Signal;HPM_P1;HPM_P2
2023/03/05 07:57:00;;;;;;;;;16.75;16.00;;;;;7.70;67.61;101682.06;5175944;27;45342;-52
2023/03/05 07:59:26;;;;;;;;;16.50;16.50;;;;;7.76;67.51;101676.59;5158484;27;45350;-52
2023/03/05 08:01:51;;;;;;;;;19.25;17.50;;;;;7.85;67.20;101689.78;5158830;27;45411;-51
2023/03/05 08:04:16;;;;;;;;;18.50;14.25;;;;;7.90;67.29;101681.69;5157270;27;45298;-49
2023/03/05 08:06:42;;;;;;;;;22.25;17.00;;;;;7.97;66.79;101678.00;5157569;27;63528;-52
2023/03/05 08:09:07;;;;;;;;;19.25;12.50;;;;;8.06;66.76;101676.91;5158060;27;45165;-48
2023/03/05 08:11:32;;;;;;;;;16.75;15.75;;;;;8.08;66.21;101661.75;5158595;27;45200;-53
2023/03/05 08:13:58;;;;;;;;;19.25;18.50;;;;;8.18;66.03;101673.97;5157797;27;58930;-51
2023/03/05 08:16:25;;;;;;;;;14.75;13.50;;;;;8.20;65.69;101669.50;5158511;27;46138;-54
2023/03/05 08:18:54;;;;;;;;;20.00;13.25;;;;;8.22;65.86;101671.22;5157853;27;45219;-54
2023/03/05 08:21:25;;;;;;;;;13.75;13.00;;;;;8.25;65.71;101665.78;5158601;27;45366;-53
2023/03/05 08:23:51;;;;;;;;;13.00;12.50;;;;;8.32;65.52;101663.94;5157829;27;45244;-52
2023/03/05 08:26:19;;;;;;;;;16.50;14.25;;;;;8.30;65.10;101663.91;5158154;27;46405;-49
2023/03/05 08:28:44;;;;;;;;;16.00;16.00;;;;;8.30;65.45;101655.91;5158042;27;45477;-56
2023/03/05 08:31:11;;;;;;;;;15.50;13.00;;;;;8.35;65.40;101661.16;5158518;27;45248;-53
2023/03/05 08:33:37;;;;;;;;;17.00;13.50;;;;;8.39;65.08;101660.19;5157658;27;45518;-53
2023/03/05 08:36:03;;;;;;;;;13.25;13.00;;;;;8.42;64.82;101664.59;5158193;27;45268;-53
2023/03/05 08:38:28;;;;;;;;;12.25;11.25;;;;;8.45;64.89;101661.84;5158005;27;45225;-53
2023/03/05 08:40:54;;;;;;;;;12.25;12.25;;;;;8.52;65.15;101653.66;5158333;27;45739;-50
2023/03/05 08:43:19;;;;;;;;;13.00;13.00;;;;;8.59;64.54;101652.59;5157877;27;45171;-53
2023/03/05 08:45:46;;;;;;;;;15.25;13.00;;;;;8.64;64.10;101650.72;5157997;27;45136;-54
2023/03/05 08:48:11;;;;;;;;;10.00;10.00;;;;;8.69;63.41;101655.94;5156709;27;45459;-54
2023/03/05 08:50:37;;;;;;;;;12.25;12.00;;;;;8.76;63.59;101656.69;5157879;27;45381;-54
2023/03/05 08:53:02;;;;;;;;;13.25;11.25;;;;;8.83;63.66;101651.16;5157705;27;45312;-53
2023/03/05 08:55:27;;;;;;;;;13.00;13.00;;;;;8.92;63.30;101658.06;5157638;27;46052;-55
2023/03/05 08:57:52;;;;;;;;;13.75;13.50;;;;;9.01;63.24;101652.50;5143993;27;45330;-56
2023/03/05 09:00:18;;;;;;;;;12.75;12.75;;;;;9.08;62.55;101651.44;5143466;27;51483;-52
2023/03/05 09:02:43;;;;;;;;;13.25;11.75;;;;;9.10;62.27;101647.78;5143476;27;45403;-54
2023/03/05 09:05:09;;;;;;;;;7.00;5.00;;;;;9.16;61.59;101654.78;5143328;27;45427;-54
2023/03/05 09:07:36;;;;;;;;;12.25;12.25;;;;;9.21;62.03;101643.94;5142949;27;45309;-54
2023/03/05 09:10:02;;;;;;;;;12.25;8.75;;;;;9.28;61.39;101643.75;5143053;27;45285;-51
2023/03/05 09:12:28;;;;;;;;;21.00;14.00;;;;;9.30;60.94;101639.25;5141117;27;45510;-52
2023/03/05 09:14:54;;;;;;;;;13.00;13.00;;;;;9.39;61.10;101640.78;5125449;27;45865;-50
2023/03/05 09:17:19;;;;;;;;;13.50;13.50;;;;;9.44;60.50;101644.25;5142599;27;45231;-52
2023/03/05 09:19:45;;;;;;;;;14.50;11.25;;;;;9.48;60.69;101633.41;5143386;27;45267;-56
2023/03/05 09:22:10;;;;;;;;;18.50;15.25;;;;;9.54;59.96;101634.13;5142976;27;51583;-53
2023/03/05 09:24:35;;;;;;;;;14.25;13.75;;;;;9.59;59.88;101634.91;5129983;27;53962;-53
2023/03/05 09:27:01;;;;;;;;;13.00;13.00;;;;;9.64;60.10;101630.28;5142285;27;45324;-53
2023/03/05 09:29:26;;;;;;;;;19.75;13.75;;;;;9.67;59.38;101644.50;5143479;27;45235;-55
2023/03/05 09:31:53;;;;;;;;;18.50;14.25;;;;;9.73;59.34;101640.75;5143126;27;45514;-54
2023/03/05 09:34:18;;;;;;;;;14.75;13.50;;;;;9.72;59.00;101630.97;5142732;27;45437;-55
2023/03/05 09:36:44;;;;;;;;;16.25;14.00;;;;;9.70;58.97;101624.75;5142835;27;45467;-53
2023/03/05 09:39:09;;;;;;;;;14.00;14.00;;;;;9.69;59.19;101621.22;5142651;27;54942;-51
2023/03/05 09:41:53;;;;;;;;;13.75;13.75;;;;;9.70;59.36;101625.63;5142818;27;45610;-54
2023/03/05 09:45:13;;;;;;;;;15.50;14.00;;;;;9.71;59.21;101618.47;5141987;27;45415;-53
2023/03/05 09:47:52;;;;;;;;;14.50;14.50;;;;;9.71;58.89;101619.38;5055603;28;45405;-52
2023/03/05 09:50:31;;;;;;;;;16.00;12.25;;;;;9.72;58.95;101615.78;5137399;27;45413;-51
2023/03/05 09:53:19;;;;;;;;;12.25;12.25;;;;;9.69;59.18;101610.53;5141140;27;45355;-53
2023/03/05 09:55:49;;;;;;;;;11.50;11.50;;;;;9.75;58.14;101612.13;5142402;27;46536;-55
2023/03/05 09:58:24;;;;;;;;;16.25;14.75;;;;;9.77;58.15;101602.28;5142145;27;45470;-54
2023/03/05 10:01:04;;;;;;;;;10.75;10.75;;;;;9.64;58.38;101577.63;5142457;27;45316;-53
2023/03/05 10:03:42;;;;;;;;;16.25;15.00;;;;;9.77;58.51;101595.13;5142047;27;45403;-52
2023/03/05 10:06:35;;;;;;;;;14.50;14.25;;;;;9.77;58.93;101591.56;5142235;27;45481;-54
2023/03/05 10:09:16;;;;;;;;;15.25;13.75;;;;;9.72;57.62;101585.44;5141164;27;45282;-49
2023/03/05 10:11:47;;;;;;;;;17.50;15.25;;;;;9.65;58.10;101575.84;5142477;27;45428;-55
2023/03/05 10:14:22;;;;;;;;;16.50;15.75;;;;;9.64;58.44;101580.31;5142141;27;45323;-51
2023/03/05 10:16:56;;;;;;;;;15.75;15.25;;;;;9.70;58.34;101579.25;5142299;27;46566;-49
2023/03/05 10:19:46;;;;;;;;;12.25;12.25;;;;;9.75;58.25;101571.97;5139964;27;45461;-56
2023/03/05 10:22:18;;;;;;;;;21.25;15.25;;;;;9.82;58.37;101573.53;5142359;27;45348;-52
2023/03/05 10:25:09;;;;;;;;;20.25;18.25;;;;;9.81;57.88;101572.66;5141030;27;45425;-55
2023/03/05 10:27:49;;;;;;;;;15.75;15.75;;;;;9.88;57.81;101576.91;5140697;27;46820;-52
2023/03/05 10:30:32;;;;;;;;;15.75;15.75;;;;;9.95;57.31;101566.03;5140924;27;45414;-49
2023/03/05 10:33:16;;;;;;;;;15.50;15.50;;;;;9.94;55.51;101564.28;5140826;27;45406;-55
2023/03/05 10:36:29;;;;;;;;;8.25;8.25;;;;;9.91;54.14;101557.19;5140638;27;45549;-53
2023/03/05 10:39:00;;;;;;;;;12.75;12.75;;;;;9.85;55.55;101560.06;5037086;28;45403;-53
2023/03/05 10:41:41;;;;;;;;;7.75;7.75;;;;;9.77;55.33;101556.75;5120588;27;45326;-55
2023/03/05 10:44:14;;;;;;;;;13.25;10.50;;;;;9.72;56.05;101555.97;5141607;27;45221;-50
2023/03/05 10:46:40;;;;;;;;;16.25;12.50;;;;;9.66;56.63;101553.50;5141661;27;45344;-51
2023/03/05 10:49:17;;;;;;;;;13.75;13.75;;;;;9.60;56.91;101551.00;5141439;27;45416;-50
2023/03/05 10:52:00;;;;;;;;;14.50;13.50;;;;;9.57;57.00;101556.44;5141398;27;45310;-52
2023/03/05 10:54:28;;;;;;;;;15.25;15.25;;;;;9.46;57.44;101544.22;5141957;27;45455;-54
2023/03/05 10:57:16;;;;;;;;;10.00;10.00;;;;;9.53;57.62;101546.75;5141366;27;45489;-50
2023/03/05 11:00:05;;;;;;;;;14.00;12.75;;;;;9.51;57.73;101551.25;5141655;27;46130;-52
2023/03/05 11:02:31;;;;;;;;;21.75;14.25;;;;;9.41;57.66;101550.66;5131684;27;45487;-52
2023/03/05 11:04:56;;;;;;;;;17.50;13.75;;;;;9.34;57.83;101539.25;5141687;27;45235;-56
2023/03/05 11:07:21;;;;;;;;;20.25;15.00;;;;;9.35;57.89;101546.34;5141606;27;53893;-54
2023/03/05 11:09:59;;;;;;;;;15.50;14.50;;;;;9.29;57.25;101540.28;5141806;27;46844;-52
2023/03/05 11:12:29;;;;;;;;;16.25;14.75;;;;;9.20;57.66;101537.84;5141881;27;45329;-55
2023/03/05 11:15:09;;;;;;;;;15.75;12.50;;;;;9.24;57.57;101539.53;5141691;27;45514;-53
2023/03/05 11:17:38;;;;;;;;;14.00;10.00;;;;;9.29;57.90;101546.50;5141651;27;45416;-54
2023/03/05 11:20:25;;;;;;;;;13.50;12.25;;;;;9.36;57.13;101534.69;5140855;27;46337;-53
2023/03/05 11:23:22;;;;;;;;;9.50;8.75;;;;;9.44;55.15;101531.84;5140885;27;45239;-54
2023/03/05 11:25:55;;;;;;;;;15.50;14.50;;;;;9.51;55.94;101529.84;5141322;27;45388;-51
2023/03/05 11:28:37;;;;;;;;;12.50;12.50;;;;;9.57;55.38;101525.19;5141402;27;45379;-53
2023/03/05 11:31:14;;;;;;;;;15.25;10.00;;;;;9.64;54.60;101529.44;5141646;27;45258;-53
2023/03/05 11:33:52;;;;;;;;;14.75;10.25;;;;;9.66;54.58;101527.59;5141316;27;45233;-57
2023/03/05 11:36:22;;;;;;;;;13.75;12.00;;;;;9.64;55.46;101528.56;5141784;27;45487;-57
2023/03/05 11:39:07;;;;;;;;;24.75;15.25;;;;;9.59;54.33;101525.16;5141279;27;45365;-58
2023/03/05 11:41:45;;;;;;;;;10.00;10.00;;;;;9.65;54.65;101522.28;5141114;27;45486;-60
2023/03/05 11:44:25;;;;;;;;;9.50;8.00;;;;;9.72;54.81;101508.66;5141272;27;45289;-60
2023/03/05 11:47:00;;;;;;;;;7.00;7.00;;;;;9.84;54.45;101507.44;5141189;27;45403;-59
2023/03/05 11:49:28;;;;;;;;;14.75;11.25;;;;;9.81;53.09;101504.84;5141261;27;45334;-58
2023/03/05 11:52:14;;;;;;;;;14.75;10.00;;;;;9.66;54.41;101495.47;5140949;27;45301;-57
2023/03/05 11:55:01;;;;;;;;;9.25;9.25;;;;;9.63;53.23;101500.03;5140973;27;45213;-59
2023/03/05 11:57:31;;;;;;;;;6.00;6.00;;;;;9.61;53.62;101489.34;5141226;27;45288;-59
2023/03/05 12:00:04;;;;;;;;;7.00;7.00;;;;;9.48;53.75;101485.31;5141039;27;45338;-58
2023/03/05 12:02:30;;;;;;;;;9.50;8.50;;;;;9.47;54.39;101489.78;5140930;27;46088;-56
2023/03/05 12:04:58;;;;;;;;;13.25;9.00;;;;;9.44;54.41;101481.84;5140522;27;45304;-59
2023/03/05 12:07:33;;;;;;;;;11.25;10.00;;;;;9.49;54.17;101482.59;5141173;27;45216;-59
2023/03/05 12:10:00;;;;;;;;;7.00;7.00;;;;;9.44;54.44;101479.16;5141124;27;45274;-59
2023/03/05 12:12:50;;;;;;;;;16.00;13.25;;;;;9.42;54.64;101472.13;5140860;27;46241;-60
2023/03/05 12:15:41;;;;;;;;;9.50;9.00;;;;;9.43;54.73;101477.44;5145049;27;45479;-59
2023/03/05 12:18:36;;;;;;;;;12.50;9.75;;;;;9.35;54.38;101463.41;5120843;27;45447;-58
2023/03/05 12:21:33;;;;;;;;;7.25;7.25;;;;;9.32;54.29;101460.81;5112990;27;46808;-60
2023/03/05 12:24:01;;;;;;;;;13.75;12.00;;;;;9.39;54.67;101456.13;5130913;27;46242;-61
2023/03/05 12:26:58;;;;;;;;;14.00;11.25;;;;;9.37;54.25;101447.28;5140120;27;45365;-60
2023/03/05 12:29:32;;;;;;;;;10.75;9.50;;;;;9.41;55.12;101441.81;5130512;27;45326;-59
2023/03/05 12:31:59;;;;;;;;;9.00;9.00;;;;;9.48;54.54;101434.47;5141024;27;45510;-58
2023/03/05 12:34:40;;;;;;;;;9.00;9.00;;;;;9.44;54.13;101432.81;5143673;27;46112;-57
2023/03/05 12:37:40;;;;;;;;;9.25;9.00;;;;;9.46;54.13;101431.81;5143832;27;45323;-59
2023/03/05 12:40:07;;;;;;;;;8.00;8.00;;;;;9.52;54.21;101424.53;5143681;27;45369;-58
2023/03/05 12:42:32;;;;;;;;;9.25;9.25;;;;;9.46;53.84;101422.91;5143908;27;45851;-57
2023/03/05 12:45:17;;;;;;;;;11.00;11.00;;;;;9.45;54.61;101415.81;5143586;27;47093;-54
2023/03/05 12:47:44;;;;;;;;;10.50;8.00;;;;;9.49;54.74;101409.44;5139629;27;45347;-58
2023/03/05 12:50:27;;;;;;;;;15.75;11.25;;;;;9.56;54.84;101405.66;5143468;27;45333;-60
2023/03/05 12:53:08;;;;;;;;;8.75;7.00;;;;;9.61;53.82;101400.19;5143407;27;45472;-58
2023/03/05 12:55:46;;;;;;;;;6.50;6.50;;;;;9.66;53.67;101390.19;5143608;27;45420;-58
2023/03/05 12:58:56;;;;;;;;;14.25;11.50;;;;;9.72;53.41;101381.94;5131534;27;45539;-59
2023/03/05 13:02:01;;;;;;;;;10.00;8.75;;;;;9.77;53.35;101372.84;5140353;27;45567;-59
2023/03/05 13:04:30;;;;;;;;;7.00;7.00;;;;;9.73;51.82;101378.34;5078877;28;45289;-62
2023/03/05 13:07:06;;;;;;;;;7.50;7.50;;;;;9.69;52.74;101369.56;5078790;28;46110;-59
2023/03/05 13:09:35;;;;;;;;;9.25;9.25;;;;;9.74;53.55;101370.28;5107446;27;45693;-60
2023/03/05 13:12:02;;;;;;;;;10.75;9.75;;;;;9.77;53.30;101354.13;5135988;27;45460;-58
2023/03/05 13:14:33;;;;;;;;;7.25;6.25;;;;;9.84;53.31;101354.78;5142486;27;45306;-60
2023/03/05 13:16:59;;;;;;;;;9.50;8.00;;;;;9.80;51.59;101348.63;5143483;27;45464;-62
2023/03/05 13:19:24;;;;;;;;;13.50;7.75;;;;;9.79;52.08;101354.03;5141898;27;45393;-61
2023/03/05 13:22:01;;;;;;;;;7.50;7.25;;;;;9.81;52.19;101331.66;5145848;27;45466;-60
2023/03/05 13:24:28;;;;;;;;;9.00;8.75;;;;;9.92;52.57;101342.00;5139610;27;45370;-60
2023/03/05 13:26:53;;;;;;;;;8.25;7.00;;;;;9.94;52.57;101331.25;5136762;27;47213;-62
2023/03/05 13:29:22;;;;;;;;;12.00;11.00;;;;;9.98;52.38;101328.41;5140265;27;45311;-61
2023/03/05 13:31:54;;;;;;;;;7.50;7.50;;;;;10.01;52.14;101327.44;5134358;27;45340;-60
2023/03/05 13:34:30;;;;;;;;;9.00;8.00;;;;;10.04;52.39;101319.25;5129642;27;45279;-61
2023/03/05 13:36:59;;;;;;;;;8.00;7.75;;;;;10.06;52.62;101314.75;5142901;27;45301;-59
2023/03/05 13:39:29;;;;;;;;;11.00;8.25;;;;;10.07;52.20;101317.38;5150304;27;45450;-59
2023/03/05 13:41:57;;;;;;;;;11.25;10.00;;;;;10.10;52.37;101306.56;5136505;27;45263;-60
2023/03/05 13:44:22;;;;;;;;;10.50;8.50;;;;;10.10;52.02;101301.19;5130528;27;45322;-62
2023/03/05 13:46:47;;;;;;;;;11.75;8.00;;;;;10.04;51.92;101292.47;5142357;27;46055;-60
2023/03/05 13:49:25;;;;;;;;;8.50;8.50;;;;;10.08;51.81;101286.97;5139369;27;45380;-60
2023/03/05 13:51:53;;;;;;;;;11.00;11.00;;;;;10.07;51.66;101292.38;5136350;27;45749;-61
2023/03/05 13:54:20;;;;;;;;;12.00;11.00;;;;;10.09;51.82;101290.53;5140685;27;45405;-60
2023/03/05 13:56:51;;;;;;;;;8.25;8.25;;;;;10.09;51.42;101286.06;5135915;27;45286;-59
2023/03/05 13:59:20;;;;;;;;;12.75;9.00;;;;;10.09;51.55;101274.47;5141112;27;45349;-60
2023/03/05 14:01:47;;;;;;;;;10.00;10.00;;;;;10.07;51.58;101276.31;5127987;27;45243;-60
2023/03/05 14:04:12;;;;;;;;;8.00;8.00;;;;;10.02;51.51;101284.53;5140727;27;45287;-60
2023/03/05 14:07:05;;;;;;;;;11.25;8.50;;;;;9.98;51.41;101277.50;5138694;27;45547;-60
2023/03/05 14:09:57;;;;;;;;;9.50;9.50;;;;;9.99;51.14;101273.91;5140929;27;45262;-60
2023/03/05 14:12:39;;;;;;;;;13.25;11.00;;;;;10.00;51.11;101267.63;5138894;27;45475;-59
2023/03/05 14:15:32;;;;;;;;;9.25;8.00;;;;;10.01;50.90;101268.50;5140761;27;45550;-59
2023/03/05 14:18:10;;;;;;;;;9.00;8.00;;;;;10.03;50.79;101259.50;5126077;27;45648;-58
2023/03/05 14:20:35;;;;;;;;;8.00;7.00;;;;;10.01;49.98;101257.78;5140233;27;45343;-62
2023/03/05 14:23:25;;;;;;;;;13.50;8.25;;;;;10.01;49.75;101252.44;5140578;27;45441;-60
2023/03/05 14:25:52;;;;;;;;;10.00;10.00;;;;;9.95;49.56;101250.84;5141215;27;46551;-60
2023/03/05 14:28:17;;;;;;;;;8.25;8.25;;;;;9.85;49.47;101241.38;5139062;27;45731;-59
2023/03/05 14:30:48;;;;;;;;;9.00;7.50;;;;;9.80;49.82;101238.84;5141789;27;45333;-58
2023/03/05 14:33:22;;;;;;;;;8.50;8.00;;;;;9.82;50.19;101237.00;5140306;27;45369;-60
2023/03/05 14:35:49;;;;;;;;;7.50;4.25;;;;;9.87;49.83;101232.34;5128388;27;45864;-61
2023/03/05 14:38:22;;;;;;;;;6.75;6.25;;;;;9.88;49.28;101218.03;5137484;27;46189;-60
2023/03/05 14:40:48;;;;;;;;;6.00;6.00;;;;;9.97;49.49;101218.63;5140589;27;45305;-60
2023/03/05 14:43:13;;;;;;;;;6.75;4.00;;;;;10.00;49.16;101216.72;5141359;27;45290;-60
2023/03/05 14:45:42;;;;;;;;;5.25;5.25;;;;;10.00;49.03;101197.97;5141330;27;48910;-59
2023/03/05 14:48:10;;;;;;;;;8.25;7.00;;;;;10.10;48.13;101209.25;5139692;27;46000;-60
2023/03/05 14:50:42;;;;;;;;;8.00;5.25;;;;;10.11;48.63;101209.19;5140869;27;45418;-58
2023/03/05 14:53:13;;;;;;;;;7.00;7.00;;;;;10.12;48.63;101202.03;5130700;27;45405;-61
2023/03/05 14:55:41;;;;;;;;;9.00;7.00;;;;;10.08;49.26;101195.91;5139277;27;45246;-60
2023/03/05 14:58:12;;;;;;;;;9.75;9.75;;;;;10.12;49.46;101184.13;5138241;27;46102;-60
2023/03/05 15:00:38;;;;;;;;;7.25;7.25;;;;;10.16;49.49;101185.78;5138587;27;45361;-59
2023/03/05 15:03:03;;;;;;;;;12.75;9.50;;;;;10.13;49.33;101183.19;5141299;27;45278;-63
2023/03/05 15:05:29;;;;;;;;;8.25;8.25;;;;;10.15;49.38;101170.63;5141599;27;45281;-61
2023/03/05 15:07:54;;;;;;;;;9.25;6.75;;;;;10.20;49.30;101173.19;5122910;27;46202;-61
2023/03/05 15:10:24;;;;;;;;;11.25;8.00;;;;;10.20;48.85;101166.00;5141849;27;45254;-62
2023/03/05 15:12:50;;;;;;;;;5.25;5.25;;;;;10.15;48.67;101157.22;5141474;27;45332;-60
2023/03/05 15:15:16;;;;;;;;;13.00;11.25;;;;;10.12;48.05;101161.84;5140620;27;46139;-60
2023/03/05 15:17:46;;;;;;;;;13.50;13.50;;;;;9.97;47.77;101141.84;5140920;27;46145;-59
2023/03/05 15:20:15;;;;;;;;;9.00;7.75;;;;;9.90;48.56;101147.47;5140685;27;45406;-60
2023/03/05 15:22:40;;;;;;;;;8.25;8.00;;;;;9.83;48.10;101142.34;5140894;27;45318;-60
2023/03/05 15:25:05;;;;;;;;;7.25;7.25;;;;;9.84;48.61;101137.88;5140659;27;45372;-60
2023/03/05 15:27:31;;;;;;;;;8.25;8.25;;;;;9.87;49.00;101135.94;5140939;27;45309;-60
2023/03/05 15:29:58;;;;;;;;;9.00;7.25;;;;;9.88;48.63;101131.47;5140741;27;45335;-61
2023/03/05 15:32:29;;;;;;;;;9.50;8.00;;;;;9.90;48.95;101121.56;5140951;27;45448;-61
2023/03/05 15:34:55;;;;;;;;;9.50;8.25;;;;;9.91;48.22;101133.16;5140551;27;45395;-60
2023/03/05 15:37:21;;;;;;;;;8.50;8.00;;;;;9.86;48.10;101130.66;5140354;27;46705;-59
2023/03/05 15:39:46;;;;;;;;;13.00;8.75;;;;;9.77;49.19;101129.19;5141187;27;45439;-58
2023/03/05 15:42:11;;;;;;;;;9.75;8.00;;;;;9.73;48.58;101132.91;5140218;27;45430;-60
2023/03/05 15:44:38;;;;;;;;;9.00;8.00;;;;;9.72;49.24;101124.91;5141037;27;45406;-60
2023/03/05 15:47:04;;;;;;;;;9.00;9.00;;;;;9.65;48.89;101112.69;5140662;27;46986;-59
2023/03/05 15:49:29;;;;;;;;;12.00;10.50;;;;;9.65;49.41;101118.91;5140844;27;45317;-60
2023/03/05 15:51:55;;;;;;;;;6.25;5.75;;;;;9.69;50.17;101123.25;5140079;27;45538;-58
2023/03/05 15:54:21;;;;;;;;;11.00;7.50;;;;;9.73;49.52;101116.84;5138762;27;45285;-59
2023/03/05 15:56:47;;;;;;;;;10.50;10.50;;;;;9.69;49.04;101115.22;5136799;27;45278;-59
2023/03/05 15:59:13;;;;;;;;;12.50;9.75;;;;;9.69;49.30;101117.03;5140797;27;45405;-60
2023/03/05 16:01:39;;;;;;;;;11.25;9.25;;;;;9.73;48.64;101108.81;5140613;27;45397;-57
2023/03/05 16:04:04;;;;;;;;;11.00;9.25;;;;;9.75;49.43;101108.75;5135292;27;45435;-57
2023/03/05 16:06:32;;;;;;;;;10.00;7.50;;;;;9.79;49.01;101115.72;5140166;27;46382;-59
2023/03/05 16:09:04;;;;;;;;;10.25;9.75;;;;;9.84;49.04;101103.06;5143385;27;45503;-58
2023/03/05 16:11:36;;;;;;;;;12.00;9.75;;;;;9.76;48.68;101100.66;5153324;27;45699;-59
2023/03/05 16:14:05;;;;;;;;;5.00;5.00;;;;;9.72;48.78;101104.38;5143348;27;45726;-58
2023/03/05 16:16:32;;;;;;;;;10.00;10.00;;;;;9.65;48.49;101088.59;5149218;27;45419;-59
2023/03/05 16:19:00;;;;;;;;;16.00;13.25;;;;;9.65;49.35;101089.47;5148739;27;45437;-72
2023/03/05 16:21:25;;;;;;;;;15.25;14.25;;;;;9.73;49.92;101091.88;5142411;27;45357;-65
2023/03/05 16:23:51;;;;;;;;;6.00;6.00;;;;;9.69;48.61;101076.88;5143783;27;45553;-63
2023/03/05 16:26:16;;;;;;;;;8.00;8.00;;;;;9.76;48.61;101084.59;5143944;27;45302;-63
2023/03/05 16:28:41;;;;;;;;;8.00;6.25;;;;;9.79;48.50;101083.59;5143773;27;45369;-63
2023/03/05 16:31:07;;;;;;;;;8.50;7.25;;;;;9.84;48.80;101087.88;5143783;27;47266;-48
2023/03/05 16:33:32;;;;;;;;;9.75;8.75;;;;;9.93;48.65;101081.28;5143507;27;45381;-57
2023/03/05 16:36:10;;;;;;;;;7.25;7.25;;;;;10.00;48.92;101077.44;5143839;27;46286;-57
2023/03/05 16:38:35;;;;;;;;;10.00;8.00;;;;;10.05;48.24;101070.09;5143352;27;45409;-58
2023/03/05 16:41:00;;;;;;;;;10.25;8.25;;;;;9.99;47.87;101073.00;5144160;27;45375;-63
2023/03/05 16:43:26;;;;;;;;;9.50;9.00;;;;;10.05;47.98;101071.91;5143666;27;45345;-59
2023/03/05 16:45:51;;;;;;;;;10.25;7.25;;;;;9.92;47.37;101051.88;5143557;27;46202;-57
2023/03/05 16:48:17;;;;;;;;;8.75;6.75;;;;;9.92;48.27;101063.47;5143430;27;45351;-65
2023/03/05 16:50:42;;;;;;;;;10.25;8.75;;;;;9.88;48.45;101045.75;5134443;27;45677;-65
2023/03/05 16:53:07;;;;;;;;;8.75;8.75;;;;;10.00;48.21;101058.69;5138887;27;55150;-64
2023/03/05 16:55:33;;;;;;;;;10.00;9.00;;;;;9.99;48.95;101053.41;5141078;27;61408;-57
2023/03/05 16:57:58;;;;;;;;;9.75;9.75;;;;;9.94;48.47;101048.22;5140933;27;45327;-58
2023/03/05 17:00:23;;;;;;;;;9.75;8.00;;;;;9.85;49.09;101043.22;5142833;27;47839;-62
2023/03/05 17:02:49;;;;;;;;;10.50;9.75;;;;;9.74;48.99;101019.53;5143099;27;45457;-61
2023/03/05 17:05:14;;;;;;;;;10.75;10.75;;;;;9.74;49.02;101015.97;5138241;27;46994;-60
2023/03/05 17:07:39;;;;;;;;;11.00;11.00;;;;;9.78;49.55;101025.66;5138722;27;45538;-56
2023/03/05 17:10:05;;;;;;;;;14.00;10.75;;;;;9.65;49.71;101010.97;5143251;27;54224;-59
2023/03/05 17:12:31;;;;;;;;;10.00;8.00;;;;;9.72;49.72;101010.66;5143249;27;45226;-62
2023/03/05 17:14:56;;;;;;;;;8.50;8.50;;;;;9.78;50.21;101014.94;5143003;27;58593;-60
2023/03/05 17:17:21;;;;;;;;;16.00;10.25;;;;;9.72;49.31;101010.66;5142641;27;45362;-60
2023/03/05 17:19:47;;;;;;;;;13.00;10.50;;;;;9.77;50.80;101018.53;5142801;27;50252;-60
2023/03/05 17:22:14;;;;;;;;;7.50;5.25;;;;;9.73;50.02;101011.53;5143338;27;45252;-61
2023/03/05 17:24:41;;;;;;;;;12.00;12.00;;;;;9.69;50.51;101016.16;5142048;27;45636;-60
2023/03/05 17:27:07;;;;;;;;;12.25;12.25;;;;;9.68;50.90;101017.09;5152002;27;45443;-57
2023/03/05 17:29:32;;;;;;;;;14.25;13.50;;;;;9.65;50.50;101017.19;5143265;27;45320;-57
2023/03/05 17:31:58;;;;;;;;;10.25;10.00;;;;;9.64;50.57;101023.47;5142514;27;57151;-63
2023/03/05 17:34:23;;;;;;;;;7.50;7.00;;;;;9.60;51.42;101018.31;5142507;27;46077;-51
2023/03/05 17:36:51;;;;;;;;;13.50;12.50;;;;;9.59;50.78;101032.63;5143174;27;45321;-60
2023/03/05 17:39:17;;;;;;;;;13.00;10.75;;;;;9.55;50.52;101030.97;5143329;27;45295;-58
2023/03/05 17:41:44;;;;;;;;;12.00;12.00;;;;;9.49;51.00;101027.59;5142900;27;45876;-54
2023/03/05 17:44:09;;;;;;;;;14.25;9.00;;;;;9.47;51.06;101025.91;5142978;27;46232;-55
2023/03/05 17:46:35;;;;;;;;;9.75;8.00;;;;;9.46;50.64;101019.69;5142787;27;45395;-54
2023/03/05 17:49:00;;;;;;;;;9.50;9.50;;;;;9.50;50.54;101031.16;5142774;27;45339;-56
2023/03/05 17:51:25;;;;;;;;;12.00;12.00;;;;;9.43;50.87;101019.81;5142612;27;46319;-56
2023/03/05 17:53:50;;;;;;;;;14.75;10.25;;;;;9.41;50.69;101019.00;5142451;27;53934;-58
2023/03/05 17:56:19;;;;;;;;;12.50;12.00;;;;;9.46;50.83;101025.03;5142388;27;52056;-56
2023/03/05 17:58:44;;;;;;;;;8.25;8.25;;;;;9.22;51.20;100971.53;5142790;27;45362;-65
2023/03/05 18:01:09;;;;;;;;;13.50;13.50;;;;;9.50;51.03;101025.81;5142571;27;45293;-57
2023/03/05 18:03:35;;;;;;;;;13.50;10.00;;;;;9.44;50.74;101007.31;5142264;27;45341;-57
2023/03/05 18:06:02;;;;;;;;;15.25;14.25;;;;;9.40;50.35;101006.53;5142597;27;45286;-55
2023/03/05 18:08:28;;;;;;;;;11.25;8.75;;;;;9.34;50.98;101009.44;5142869;27;45354;-57
2023/03/05 18:10:53;;;;;;;;;15.50;12.00;;;;;9.28;50.87;101016.78;5142551;27;45383;-54
2023/03/05 18:13:18;;;;;;;;;11.25;11.25;;;;;9.23;51.32;101005.41;5142470;27;46135;-56
2023/03/05 18:15:46;;;;;;;;;12.75;11.50;;;;;9.23;51.30;100997.38;5141965;27;57124;-55
2023/03/05 18:18:13;;;;;;;;;12.00;12.00;;;;;9.27;51.02;101013.25;5142169;27;45388;-56
2023/03/05 18:20:40;;;;;;;;;12.00;12.00;;;;;9.24;50.35;101004.47;5142457;27;45405;-57
2023/03/05 18:23:06;;;;;;;;;10.75;10.25;;;;;9.24;50.96;101009.81;5141865;27;46275;-56
2023/03/05 18:25:32;;;;;;;;;12.25;12.25;;;;;9.23;50.55;101011.63;5133812;27;45483;-58
2023/03/05 18:28:04;;;;;;;;;8.50;7.25;;;;;9.29;50.75;101007.84;5142172;27;45531;-56
2023/03/05 18:30:30;;;;;;;;;14.00;13.75;;;;;9.23;50.43;101000.94;5140633;27;45333;-59
2023/03/05 18:32:55;;;;;;;;;11.00;11.00;;;;;9.30;50.70;101007.78;5142090;27;45240;-56
2023/03/05 18:35:21;;;;;;;;;14.00;13.25;;;;;9.28;50.81;100998.06;5141257;27;45353;-55
2023/03/05 18:37:47;;;;;;;;;13.50;13.50;;;;;9.27;50.50;101013.25;5141727;27;45412;-57
2023/03/05 18:40:19;;;;;;;;;14.25;13.50;;;;;9.33;50.77;101002.34;5142082;27;45322;-57
2023/03/05 18:42:44;;;;;;;;;19.50;14.00;;;;;9.33;50.94;101007.69;5142021;27;45768;-55
2023/03/05 18:45:13;;;;;;;;;11.75;11.75;;;;;9.32;50.32;101000.59;5141892;27;45556;-56
2023/03/05 18:47:40;;;;;;;;;13.00;11.50;;;;;9.35;50.78;101002.28;5141642;27;45437;-56
2023/03/05 18:50:07;;;;;;;;;12.00;12.00;;;;;9.35;50.75;100995.13;5141148;27;46014;-58
2023/03/05 18:52:33;;;;;;;;;14.00;13.00;;;;;9.30;51.02;100993.53;5141253;27;45356;-55
2023/03/05 18:54:58;;;;;;;;;15.25;14.25;;;;;9.29;50.63;100995.34;5141400;27;45286;-57
2023/03/05 18:57:24;;;;;;;;;17.00;15.00;;;;;9.12;50.67;100971.00;5141563;27;46036;-55
2023/03/05 18:59:49;;;;;;;;;21.50;13.25;;;;;9.31;51.30;100987.25;5141639;27;45524;-55
2023/03/05 19:02:15;;;;;;;;;18.50;14.25;;;;;9.34;51.13;100989.84;5141640;27;46040;-56
2023/03/05 19:04:42;;;;;;;;;19.25;16.50;;;;;9.36;50.99;100980.81;5141042;27;45359;-58
2023/03/05 19:07:07;;;;;;;;;19.25;15.00;;;;;9.31;50.67;100979.25;5141830;27;45459;-56
2023/03/05 19:09:54;;;;;;;;;21.50;19.75;;;;;9.35;50.80;100979.09;5141522;27;45454;-57
2023/03/05 19:12:23;;;;;;;;;23.00;18.75;;;;;9.35;50.93;100970.19;5141346;27;45346;-59
2023/03/05 19:14:49;;;;;;;;;21.25;19.00;;;;;9.38;50.98;100975.41;5139703;27;45378;-55
2023/03/05 19:17:15;;;;;;;;;19.00;15.00;;;;;9.39;50.02;100978.03;5135176;27;45537;-54
2023/03/05 19:19:41;;;;;;;;;20.50;18.25;;;;;9.37;50.16;100974.53;5136851;27;45527;-58
2023/03/05 19:22:10;;;;;;;;;24.75;21.75;;;;;9.37;50.57;100973.66;5134948;27;46251;-59
2023/03/05 19:24:37;;;;;;;;;19.00;17.25;;;;;9.40;50.68;100979.78;5129601;27;45432;-56
2023/03/05 19:27:09;;;;;;;;;21.50;19.75;;;;;9.44;50.57;100980.53;5141385;27;45401;-59
2023/03/05 19:29:36;;;;;;;;;18.25;18.25;;;;;9.42;50.34;100974.38;5141161;27;45430;-57
2023/03/05 19:32:05;;;;;;;;;20.25;20.00;;;;;9.39;51.39;100961.09;5140294;27;46201;-55
2023/03/05 19:34:31;;;;;;;;;21.00;13.75;;;;;9.48;50.91;100968.78;5133715;27;45401;-58